Time;durP1;ratioP1;P1;durP2;ratioP2;P2;SDS_P1;SDS_P2;PMS_P1;PMS_P2;Temp;Humidity;BMP_temperature;BMP_pressure;BME280_temperature;BME280_humidity;BME280_pressure;Samples;Min_cycle;Max_cycle;Signal;HPM_P1;HPM_P2
2022/10/29 00:01:59;;;;;;;11.30;6.60;;;;;;;17.48;78.72;100762.41;10468844;28;22407;-72
2022/10/29 00:07:01;;;;;;;11.13;6.53;;;;;;;17.59;78.17;100761.31;10440266;28;20059;-72
2022/10/29 00:12:02;;;;;;;18.48;7.68;;;;;;;17.50;79.20;100757.72;10421446;28;20711;-72
2022/10/29 00:17:03;;;;;;;16.88;8.00;;;;;;;17.47;78.06;100753.50;10433654;28;20610;-72
2022/10/29 00:22:05;;;;;;;12.82;7.25;;;;;;;17.48;77.83;100763.25;10434468;28;20044;-72
2022/10/29 00:27:06;;;;;;;12.35;7.38;;;;;;;17.41;78.05;100766.72;10432214;28;20044;-73
2022/10/29 00:32:08;;;;;;;12.30;7.45;;;;;;;17.36;78.13;100758.28;10434471;28;20061;-72
2022/10/29 00:37:10;;;;;;;11.38;6.97;;;;;;;17.23;78.42;100769.44;10435475;28;20057;-72
2022/10/29 00:42:14;;;;;;;12.90;6.82;;;;;;;17.21;79.60;100761.50;10419574;28;20075;-72
2022/10/29 00:47:32;;;;;;;13.82;7.82;;;;;;;17.17;78.83;100770.88;10389823;28;20049;-74
2022/10/29 00:52:42;;;;;;;11.20;6.68;;;;;;;17.10;79.57;100764.47;10399258;28;20571;-72
2022/10/29 00:57:48;;;;;;;12.77;7.55;;;;;;;17.04;79.47;100765.03;10406586;28;20057;-73
2022/10/29 01:02:50;;;;;;;12.93;6.65;;;;;;;17.02;79.66;100775.13;10416794;28;20048;-73
2022/10/29 01:07:51;;;;;;;12.23;6.65;;;;;;;17.04;79.24;100781.19;10401250;28;20154;-72
2022/10/29 01:13:37;;;;;;;14.85;7.90;;;;;;;16.96;79.66;100779.25;10393086;28;20788;-76
2022/10/29 01:18:48;;;;;;;12.55;6.47;;;;;;;16.94;79.87;100775.88;10278940;28;20057;-72
2022/10/29 01:24:24;;;;;;;13.32;7.65;;;;;;;16.95;79.87;100762.28;10366890;28;20067;-72
2022/10/29 01:29:43;;;;;;;12.55;7.10;;;;;;;16.86;80.10;100751.56;10389562;28;20053;-73
2022/10/29 01:35:00;;;;;;;9.07;7.32;;;;;;;16.76;80.70;100747.09;10389655;28;20049;-74
2022/10/29 01:40:07;;;;;;;11.57;6.85;;;;;;;16.73;81.14;100742.03;10387717;28;20046;-73
2022/10/29 01:45:39;;;;;;;13.88;6.95;;;;;;;16.69;81.09;100750.53;10388898;28;20049;-73
2022/10/29 01:50:44;;;;;;;12.38;6.20;;;;;;;16.70;80.87;100753.09;10387823;28;20632;-73
2022/10/29 01:55:45;;;;;;;12.25;6.85;;;;;;;16.68;81.23;100743.47;10391328;28;20053;-74
2022/10/29 02:01:04;;;;;;;13.73;7.50;;;;;;;16.63;81.21;100740.41;10393779;28;20057;-73
2022/10/29 02:06:22;;;;;;;11.20;6.93;;;;;;;16.56;81.08;100743.69;10387988;28;20537;-74
2022/10/29 02:11:40;;;;;;;12.65;7.72;;;;;;;16.48;81.37;100753.50;10390591;28;20036;-72
2022/10/29 02:16:42;;;;;;;13.05;7.20;;;;;;;16.45;81.28;100749.25;10390516;28;20049;-72
2022/10/29 02:21:44;;;;;;;12.52;7.18;;;;;;;16.47;82.33;100747.28;10388880;28;20156;-73
2022/10/29 02:26:45;;;;;;;14.35;7.70;;;;;;;16.32;81.91;100744.25;10391745;28;20053;-73
2022/10/29 02:31:46;;;;;;;11.95;8.10;;;;;;;16.31;82.32;100749.78;10390301;28;20095;-74
2022/10/29 02:36:48;;;;;;;18.10;7.30;;;;;;;16.30;82.41;100740.03;10387131;28;20061;-72
2022/10/29 02:41:49;;;;;;;10.05;7.05;;;;;;;16.36;82.82;100750.16;10391151;28;20053;-74
2022/10/29 02:46:50;;;;;;;10.90;6.85;;;;;;;16.40;82.01;100743.50;10392955;28;20056;-72
2022/10/29 02:51:51;;;;;;;10.48;7.75;;;;;;;16.26;82.47;100745.69;10393841;28;20710;-73
2022/10/29 02:56:53;;;;;;;13.55;7.93;;;;;;;16.21;82.14;100753.38;10397935;28;20065;-73
2022/10/29 03:01:54;;;;;;;11.93;7.40;;;;;;;16.22;82.46;100741.59;10396126;28;20052;-74
2022/10/29 03:06:56;;;;;;;13.38;6.78;;;;;;;16.15;82.74;100737.81;10406026;28;20057;-72
2022/10/29 03:11:57;;;;;;;10.30;7.55;;;;;;;16.01;82.86;100733.78;10406238;28;20748;-74
2022/10/29 03:16:58;;;;;;;11.73;7.90;;;;;;;15.94;83.27;100734.53;10404901;28;20052;-75
2022/10/29 03:22:00;;;;;;;11.82;6.65;;;;;;;15.89;84.28;100716.16;10441031;28;20052;-74
2022/10/29 03:27:01;;;;;;;13.57;7.45;;;;;;;16.05;83.43;100739.72;10443157;28;20644;-74
2022/10/29 03:32:02;;;;;;;10.07;6.35;;;;;;;16.08;83.20;100752.84;10444351;28;20491;-73
2022/10/29 03:37:04;;;;;;;12.73;7.10;;;;;;;15.97;82.72;100742.28;10441113;28;20053;-74
2022/10/29 03:42:05;;;;;;;12.18;7.30;;;;;;;15.78;84.13;100746.72;10426220;28;20044;-73
2022/10/29 03:47:08;;;;;;;11.88;6.65;;;;;;;15.75;84.58;100746.97;10440398;28;20064;-74
2022/10/29 03:52:09;;;;;;;11.65;6.72;;;;;;;15.72;85.16;100758.84;10442491;28;20106;-74
2022/10/29 03:57:11;;;;;;;14.50;7.32;;;;;;;15.88;84.33;100770.84;10438210;28;20052;-74
2022/10/29 04:02:12;;;;;;;12.85;8.05;;;;;;;15.88;83.97;100763.66;10444988;28;20131;-72
2022/10/29 04:07:14;;;;;;;12.73;7.00;;;;;;;15.68;84.41;100751.22;10442251;28;20064;-72
2022/10/29 04:12:15;;;;;;;11.88;7.38;;;;;;;15.60;84.85;100759.16;10445428;28;20238;-74
2022/10/29 04:17:17;;;;;;;11.55;6.68;;;;;;;15.61;84.51;100752.78;10463357;28;20063;-73
2022/10/29 04:22:18;;;;;;;13.40;6.68;;;;;;;15.66;83.85;100753.22;10438480;28;20491;-76
2022/10/29 04:27:39;;;;;;;12.85;6.78;;;;;;;15.53;84.30;100749.00;10480243;28;20551;-72
2022/10/29 04:33:00;;;;;;;12.68;6.40;;;;;;;15.62;84.32;100757.19;10451335;28;20422;-74
2022/10/29 04:38:09;;;;;;;14.55;6.93;;;;;;;15.48;84.59;100751.28;10432891;28;20052;-74
2022/10/29 04:43:11;;;;;;;11.90;7.45;;;;;;;15.51;84.53;100724.16;10447848;28;20055;-72
2022/10/29 04:48:12;;;;;;;11.65;6.65;;;;;;;15.52;84.44;100727.66;10435632;28;20053;-73
2022/10/29 04:53:14;;;;;;;14.85;7.85;;;;;;;15.52;84.92;100728.53;10433499;28;20041;-73
2022/10/29 04:58:19;;;;;;;13.43;6.47;;;;;;;15.63;83.50;100732.06;10428283;28;20056;-72
2022/10/29 05:03:20;;;;;;;12.15;6.90;;;;;;;15.54;83.85;100723.84;10427542;28;20041;-73
2022/10/29 05:08:23;;;;;;;14.18;7.10;;;;;;;15.55;83.60;100730.94;10420695;28;20623;-73
2022/10/29 05:13:24;;;;;;;11.10;6.35;;;;;;;15.61;84.05;100739.38;10431616;28;20045;-72
2022/10/29 05:18:25;;;;;;;11.27;6.80;;;;;;;15.63;83.66;100740.09;10424401;28;20672;-73
2022/10/29 05:23:27;;;;;;;14.70;7.68;;;;;;;15.56;83.84;100737.97;10434133;28;20143;-72
2022/10/29 05:28:28;;;;;;;10.82;6.47;;;;;;;15.54;84.13;100723.03;10438587;28;20052;-72
2022/10/29 05:33:29;;;;;;;9.02;5.82;;;;;;;15.53;84.49;100732.88;10424288;28;20064;-72
2022/10/29 05:38:31;;;;;;;12.10;6.20;;;;;;;15.52;84.46;100736.59;10387406;28;20061;-73
2022/10/29 05:43:32;;;;;;;8.35;5.90;;;;;;;15.51;84.61;100729.50;10376721;28;20138;-72
2022/10/29 05:48:34;;;;;;;14.32;7.45;;;;;;;15.53;84.58;100738.25;10369424;28;20140;-73
2022/10/29 05:53:35;;;;;;;11.55;6.57;;;;;;;15.49;84.27;100731.50;10371986;28;20050;-71
2022/10/29 05:58:36;;;;;;;10.85;7.20;;;;;;;15.55;83.95;100730.94;10370893;28;20495;-73
2022/10/29 06:03:38;;;;;;;15.85;6.05;;;;;;;15.49;83.91;100731.50;10375875;28;20078;-72
2022/10/29 06:08:39;;;;;;;8.55;6.25;;;;;;;15.47;83.16;100733.47;10372996;28;20053;-72
2022/10/29 06:13:40;;;;;;;11.40;6.47;;;;;;;15.40;83.15;100743.06;10370845;28;20076;-71
2022/10/29 06:18:42;;;;;;;11.70;6.03;;;;;;;15.41;83.45;100730.53;10370682;28;20083;-74
2022/10/29 06:23:43;;;;;;;10.35;5.85;;;;;;;15.40;83.09;100731.50;10371262;28;20167;-72
2022/10/29 06:28:44;;;;;;;11.48;6.53;;;;;;;15.38;83.11;100728.97;10370368;28;20053;-73
2022/10/29 06:33:46;;;;;;;14.05;5.53;;;;;;;15.45;82.59;100730.09;10371720;28;20053;-72
2022/10/29 06:38:47;;;;;;;13.70;6.13;;;;;;;15.41;82.74;100741.25;10362571;28;20077;-72
2022/10/29 06:43:49;;;;;;;9.65;6.10;;;;;;;15.42;83.35;100740.25;10372142;28;20061;-76
2022/10/29 06:48:50;;;;;;;12.63;6.50;;;;;;;15.53;82.37;100748.16;10362641;28;20045;-73
2022/10/29 06:53:53;;;;;;;13.18;6.43;;;;;;;15.43;82.22;100740.09;10362970;28;21269;-69
2022/10/29 06:58:54;;;;;;;12.98;6.38;;;;;;;15.44;82.38;100749.03;10365586;28;20049;-71
2022/10/29 07:03:56;;;;;;;11.73;5.80;;;;;;;15.43;82.45;100756.19;10369382;28;20045;-72
2022/10/29 07:08:57;;;;;;;11.35;5.85;;;;;;;15.42;82.57;100756.34;10371903;28;20051;-72
2022/10/29 07:13:58;;;;;;;8.95;6.05;;;;;;;15.48;82.65;100748.59;10377029;28;20052;-71
2022/10/29 07:19:01;;;;;;;13.75;6.22;;;;;;;15.51;82.44;100760.88;10375935;28;20130;-72
2022/10/29 07:24:02;;;;;;;10.25;7.00;;;;;;;15.48;82.93;100756.63;10375386;28;20056;-72
2022/10/29 07:29:03;;;;;;;15.38;7.30;;;;;;;15.48;82.94;100758.47;10372882;28;20538;-71
2022/10/29 07:34:05;;;;;;;13.13;6.50;;;;;;;15.48;82.85;100761.16;10373335;28;21205;-71
2022/10/29 07:39:06;;;;;;;16.73;7.00;;;;;;;15.52;82.73;100763.41;10406630;28;20424;-72
2022/10/29 07:44:08;;;;;;;9.20;6.03;;;;;;;15.54;83.25;100766.78;10389480;28;20545;-72
2022/10/29 07:49:09;;;;;;;9.73;6.47;;;;;;;15.63;82.79;100765.09;10400743;28;20061;-70
2022/10/29 07:54:10;;;;;;;12.45;7.22;;;;;;;15.59;82.65;100768.19;10414864;28;20083;-71
2022/10/29 07:59:16;;;;;;;11.20;6.88;;;;;;;15.70;82.98;100765.34;10410777;28;20052;-72
2022/10/29 08:04:18;;;;;;;11.40;7.03;;;;;;;15.83;81.97;100768.59;10426837;28;20390;-73
2022/10/29 08:09:19;;;;;;;14.10;6.70;;;;;;;15.90;81.47;100761.66;10442042;28;20151;-74
2022/10/29 08:14:20;;;;;;;11.02;6.75;;;;;;;16.01;81.39;100759.78;10420304;28;20339;-74
2022/10/29 08:19:23;;;;;;;12.88;6.55;;;;;;;16.25;80.62;100770.84;10424946;28;20053;-73
2022/10/29 08:24:24;;;;;;;13.25;7.20;;;;;;;16.37;79.67;100760.75;10396029;28;20068;-74
2022/10/29 08:29:25;;;;;;;20.73;7.25;;;;;;;16.40;80.10;100765.84;10382400;28;20049;-73
2022/10/29 08:34:27;;;;;;;11.55;6.57;;;;;;;16.34;80.67;100765.59;10379654;28;20409;-69
2022/10/29 08:39:28;;;;;;;16.77;10.13;;;;;;;16.28;80.67;100767.03;10368828;28;20049;-76
2022/10/29 08:44:56;;;;;;;16.88;9.02;;;;;;;16.32;81.19;100770.25;10374621;28;20059;-72
2022/10/29 08:50:22;;;;;;;12.32;7.80;;;;;;;16.39;80.90;100761.47;10377224;28;20068;-72
2022/10/29 08:55:35;;;;;;;12.57;6.95;;;;;;;16.44;80.90;100769.09;10376283;28;20772;-71
2022/10/29 09:00:41;;;;;;;16.25;8.00;;;;;;;16.49;79.96;100772.16;10376513;28;20056;-72
2022/10/29 09:06:13;;;;;;;13.05;7.38;;;;;;;16.55;80.29;100766.19;10376150;28;20052;-70
2022/10/29 09:11:50;;;;;;;14.13;8.07;;;;;;;16.58;80.02;100770.41;10371641;28;21380;-72
2022/10/29 09:16:58;;;;;;;15.05;8.35;;;;;;;16.62;80.03;100761.06;10322623;28;20068;-71
2022/10/29 09:22:15;;;;;;;13.68;7.07;;;;;;;16.69;80.27;100766.66;10377637;28;20063;-72
2022/10/29 09:27:36;;;;;;;14.73;8.20;;;;;;;16.88;79.34;100765.75;10375797;28;20045;-80
2022/10/29 09:32:42;;;;;;;12.93;7.78;;;;;;;17.05;79.44;100756.81;10376262;28;20364;-75
2022/10/29 09:38:04;;;;;;;16.08;8.48;;;;;;;17.26;79.18;100759.22;10373073;28;20049;-77
2022/10/29 09:43:17;;;;;;;15.15;8.48;;;;;;;17.47;78.48;100741.88;10405002;28;20048;-80
2022/10/29 09:48:37;;;;;;;13.20;8.40;;;;;;;17.77;77.10;100761.28;10393667;28;20057;-80
2022/10/29 09:53:39;;;;;;;13.02;8.38;;;;;;;17.76;77.10;100754.19;10379343;28;20062;-77
2022/10/29 09:58:44;;;;;;;12.50;9.18;;;;;;;17.82;76.69;100748.19;10374142;28;20052;-73
2022/10/29 10:03:52;;;;;;;15.55;8.75;;;;;;;17.85;76.92;100747.88;10370361;28;20056;-75
2022/10/29 10:09:04;;;;;;;15.07;10.52;;;;;;;17.89;76.59;100743.00;10374714;28;20388;-79
2022/10/29 10:14:15;;;;;;;16.40;11.65;;;;;;;17.83;76.47;100741.78;10368652;28;20079;-77
2022/10/29 10:19:31;;;;;;;15.45;9.82;;;;;;;17.93;76.52;100734.47;10370417;28;20060;-73
2022/10/29 10:24:35;;;;;;;20.55;10.27;;;;;;;17.96;75.96;100722.53;10365242;28;20081;-73
2022/10/29 10:29:36;;;;;;;13.77;10.07;;;;;;;18.19;75.51;100728.19;10370348;28;20052;-73
2022/10/29 10:34:38;;;;;;;15.48;9.45;;;;;;;18.78;73.81;100727.38;10367225;28;20041;-73
2022/10/29 10:39:44;;;;;;;15.23;10.48;;;;;;;19.69;69.24;100726.38;10366764;28;20075;-75
2022/10/29 10:44:51;;;;;;;16.25;9.38;;;;;;;20.44;66.73;100719.72;10406867;28;20058;-73
2022/10/29 10:49:53;;;;;;;14.77;11.13;;;;;;;21.95;61.25;100711.09;10368949;28;20064;-72
2022/10/29 10:54:59;;;;;;;17.05;11.57;;;;;;;25.89;47.51;100696.31;10382006;28;20068;-75
2022/10/29 11:00:17;;;;;;;14.57;9.95;;;;;;;27.10;43.67;100697.41;10377539;28;20057;-73
2022/10/29 11:05:21;;;;;;;17.08;9.43;;;;;;;26.22;44.38;100679.84;10409367;28;20052;-75
2022/10/29 11:10:33;;;;;;;11.65;9.00;;;;;;;24.48;50.12;100684.50;10369208;28;20048;-74
2022/10/29 11:15:39;;;;;;;16.87;9.97;;;;;;;24.44;51.32;100689.53;10369364;28;20610;-76
2022/10/29 11:20:49;;;;;;;15.02;8.95;;;;;;;23.53;53.02;100685.06;10362999;28;20482;-75
2022/10/29 11:26:04;;;;;;;11.07;8.23;;;;;;;22.31;55.65;100666.94;10373035;28;20052;-73
2022/10/29 11:31:23;;;;;;;11.02;8.35;;;;;;;21.27;59.24;100654.22;10383236;28;20049;-74
2022/10/29 11:36:28;;;;;;;16.75;8.73;;;;;;;20.90;61.53;100647.81;10376888;28;20044;-72
2022/10/29 11:41:42;;;;;;;14.27;9.35;;;;;;;20.84;62.28;100639.38;10373308;28;21196;-73
2022/10/29 11:46:52;;;;;;;14.95;8.15;;;;;;;20.70;62.93;100642.88;10373349;28;20053;-74
2022/10/29 11:52:10;;;;;;;11.90;7.50;;;;;;;20.76;63.89;100642.16;10373428;28;20069;-73
2022/10/29 11:57:47;;;;;;;11.68;7.78;;;;;;;20.96;64.03;100631.69;10374680;28;20045;-72
2022/10/29 12:03:11;;;;;;;14.80;7.97;;;;;;;21.00;63.28;100634.84;10367633;28;21329;-73
2022/10/29 12:08:30;;;;;;;15.85;8.57;;;;;;;21.32;61.52;100627.47;10371833;28;20064;-72
2022/10/29 12:14:09;;;;;;;14.25;7.70;;;;;;;21.11;61.12;100623.59;10372452;28;20955;-71
2022/10/29 12:19:29;;;;;;;14.30;9.65;;;;;;;21.00;62.34;100615.91;10385888;28;20049;-73
2022/10/29 12:24:59;;;;;;;15.18;9.00;;;;;;;21.02;62.40;100614.72;10371881;28;20080;-74
2022/10/29 12:30:05;;;;;;;13.27;8.63;;;;;;;20.92;61.48;100607.88;10377971;28;20053;-74
2022/10/29 12:35:28;;;;;;;13.85;8.63;;;;;;;20.87;62.31;100605.72;10377561;28;20797;-72
2022/10/29 12:40:33;;;;;;;13.30;7.28;;;;;;;20.76;62.79;100598.91;10373836;28;20040;-71
2022/10/29 12:46:05;;;;;;;11.27;6.63;;;;;;;20.64;64.34;100590.34;10370037;28;20593;-70
2022/10/29 12:51:41;;;;;;;13.13;6.90;;;;;;;20.61;65.19;100582.59;10409977;28;20044;-75
2022/10/29 12:56:43;;;;;;;9.20;5.88;;;;;;;20.61;65.55;100579.88;10398229;28;20052;-74
2022/10/29 13:01:51;;;;;;;12.55;6.70;;;;;;;20.57;64.35;100577.72;10404742;28;20056;-74
2022/10/29 13:07:18;;;;;;;11.70;7.05;;;;;;;20.29;65.32;100587.19;10380549;28;20053;-74
2022/10/29 13:12:53;;;;;;;14.35;7.18;;;;;;;20.26;67.01;100567.78;10425067;28;20053;-74
2022/10/29 13:18:01;;;;;;;13.23;6.85;;;;;;;20.33;66.71;100568.75;10413689;28;20503;-72
2022/10/29 13:23:02;;;;;;;9.15;6.28;;;;;;;20.43;66.67;100569.38;10401013;28;20133;-73
2022/10/29 13:28:13;;;;;;;13.13;6.60;;;;;;;20.54;65.86;100569.97;10418330;28;20048;-75
2022/10/29 13:33:27;;;;;;;16.83;7.95;;;;;;;20.48;65.43;100564.25;10411807;28;20183;-76
2022/10/29 13:38:53;;;;;;;13.25;7.10;;;;;;;20.53;66.89;100557.47;10412766;28;20150;-71
2022/10/29 13:44:12;;;;;;;14.38;7.65;;;;;;;20.53;66.95;100554.75;10410643;28;20606;-71
2022/10/29 13:49:31;;;;;;;15.20;8.82;;;;;;;20.49;67.58;100548.84;10405650;28;20087;-72
2022/10/29 13:54:45;;;;;;;16.27;7.78;;;;;;;20.48;66.91;100556.13;10389947;28;20387;-73
2022/10/29 14:00:11;;;;;;;10.43;7.25;;;;;;;20.52;67.62;100548.50;10388078;28;20570;-71
2022/10/29 14:05:33;;;;;;;12.98;8.05;;;;;;;20.53;67.34;100538.53;10388729;28;20041;-71
2022/10/29 14:10:39;;;;;;;10.82;7.88;;;;;;;20.61;67.78;100530.34;10374506;28;20815;-74
2022/10/29 14:16:08;;;;;;;13.45;7.05;;;;;;;20.68;67.54;100542.16;10372221;28;20050;-72
2022/10/29 14:21:24;;;;;;;15.02;8.13;;;;;;;21.08;66.49;100539.25;10367756;28;20057;-72
2022/10/29 14:26:28;;;;;;;13.10;8.23;;;;;;;21.80;63.68;100535.84;10380150;28;20053;-75
2022/10/29 14:31:29;;;;;;;13.93;8.27;;;;;;;21.63;64.03;100532.53;10382911;28;20052;-70
2022/10/29 14:36:39;;;;;;;17.63;8.85;;;;;;;21.50;64.59;100530.47;10368634;28;20048;-72
2022/10/29 14:41:41;;;;;;;14.70;8.43;;;;;;;21.49;65.15;100539.59;10370619;28;20060;-72
2022/10/29 14:46:56;;;;;;;12.30;8.80;;;;;;;21.27;66.06;100535.97;10361642;28;20720;-71
2022/10/29 14:52:14;;;;;;;12.25;8.45;;;;;;;21.09;66.61;100533.66;10370921;28;20040;-71
2022/10/29 14:57:19;;;;;;;16.63;7.90;;;;;;;20.89;68.34;100543.31;10372012;28;20045;-71
2022/10/29 15:02:22;;;;;;;16.05;9.15;;;;;;;20.70;69.25;100536.56;10361936;28;20426;-73
2022/10/29 15:07:40;;;;;;;13.45;7.93;;;;;;;20.56;69.88;100538.16;10368622;28;20067;-72
2022/10/29 15:12:41;;;;;;;12.00;8.70;;;;;;;20.46;70.50;100530.28;10373567;28;20071;-74
2022/10/29 15:18:04;;;;;;;14.15;9.48;;;;;;;20.29;70.97;100526.88;10367724;28;20060;-75
2022/10/29 15:23:16;;;;;;;16.20;9.15;;;;;;;20.23;70.63;100523.03;10371725;28;20739;-74
2022/10/29 15:28:27;;;;;;;18.55;10.15;;;;;;;20.10;70.97;100528.19;10365834;28;20504;-75
2022/10/29 15:33:30;;;;;;;13.45;9.15;;;;;;;20.04;71.76;100523.50;10367127;28;20057;-75
2022/10/29 15:38:33;;;;;;;17.70;9.00;;;;;;;19.97;72.50;100531.50;10369436;28;20041;-74
2022/10/29 15:43:48;;;;;;;15.55;10.07;;;;;;;19.81;73.13;100527.03;10398284;28;20072;-76
2022/10/29 15:48:50;;;;;;;12.68;9.85;;;;;;;19.77;73.98;100534.66;10374830;28;20151;-73
2022/10/29 15:53:54;;;;;;;13.32;10.13;;;;;;;19.67;74.88;100523.19;10368266;28;20057;-72
2022/10/29 15:58:57;;;;;;;13.93;10.40;;;;;;;19.58;75.56;100518.84;10365501;28;20045;-73
2022/10/29 16:03:59;;;;;;;16.15;10.30;;;;;;;19.49;76.13;100511.81;10368543;28;20141;-75
2022/10/29 16:09:00;;;;;;;19.02;11.77;;;;;;;19.38;76.51;100497.69;10377289;28;20049;-75
2022/10/29 16:14:01;;;;;;;18.23;11.10;;;;;;;19.27;76.47;100527.75;10390269;28;20488;-72
2022/10/29 16:19:03;;;;;;;32.33;26.15;;;;;;;19.18;76.75;100523.38;10396934;28;20052;-74
2022/10/29 16:24:05;;;;;;;22.33;16.67;;;;;;;19.07;77.34;100509.25;10398800;28;20083;-74
2022/10/29 16:29:08;;;;;;;20.40;15.05;;;;;;;18.99;78.11;100511.97;10415489;28;20068;-73
2022/10/29 16:34:12;;;;;;;17.55;13.20;;;;;;;18.89;79.06;100514.03;10411190;28;20056;-74
2022/10/29 16:39:13;;;;;;;16.90;13.35;;;;;;;18.81;79.34;100508.59;10415897;28;20053;-72
2022/10/29 16:44:14;;;;;;;21.45;13.18;;;;;;;18.76;79.53;100508.28;10412600;28;20128;-75
2022/10/29 16:49:16;;;;;;;17.13;12.25;;;;;;;18.68;80.07;100523.44;10411446;28;20530;-71
2022/10/29 16:54:17;;;;;;;19.13;13.90;;;;;;;18.59;80.66;100508.31;10398589;28;20044;-72
2022/10/29 16:59:19;;;;;;;19.42;14.00;;;;;;;18.54;80.85;100513.38;10397124;28;20415;-73
2022/10/29 17:04:21;;;;;;;17.77;13.40;;;;;;;18.46;81.08;100497.19;10418087;28;20053;-74
2022/10/29 17:09:22;;;;;;;18.38;13.65;;;;;;;18.33;81.72;100498.53;10394127;28;20056;-74
2022/10/29 17:14:25;;;;;;;19.27;16.92;;;;;;;18.30;82.21;100504.28;10395874;28;20064;-73
2022/10/29 17:19:27;;;;;;;19.88;15.25;;;;;;;18.24;82.61;100499.56;10417529;28;20052;-74
2022/10/29 17:24:29;;;;;;;19.92;14.13;;;;;;;18.20;82.89;100506.28;10413912;28;20584;-73
2022/10/29 17:29:30;;;;;;;17.42;14.23;;;;;;;18.12;82.95;100511.66;10414723;28;20128;-74
2022/10/29 17:34:36;;;;;;;18.25;14.80;;;;;;;18.14;82.69;100509.66;10413060;28;20671;-72
2022/10/29 17:39:38;;;;;;;20.25;14.85;;;;;;;18.05;82.59;100505.25;10395270;28;20071;-72
2022/10/29 17:44:39;;;;;;;19.27;13.82;;;;;;;18.00;83.12;100511.97;10391167;28;20266;-72
2022/10/29 17:49:40;;;;;;;19.05;13.38;;;;;;;17.95;83.31;100516.19;10372736;28;20059;-71
2022/10/29 17:54:42;;;;;;;19.20;13.80;;;;;;;17.87;83.29;100522.34;10375027;28;20055;-73
2022/10/29 17:59:43;;;;;;;17.75;13.95;;;;;;;17.76;83.00;100514.56;10372288;28;20440;-76
2022/10/29 18:04:44;;;;;;;19.10;14.48;;;;;;;17.75;83.30;100515.59;10370074;28;20053;-73
2022/10/29 18:09:46;;;;;;;18.75;14.18;;;;;;;17.67;83.54;100519.94;10373318;28;20140;-73
2022/10/29 18:14:47;;;;;;;21.83;14.48;;;;;;;17.62;83.41;100521.44;10368450;28;20064;-74
2022/10/29 18:19:48;;;;;;;20.60;14.32;;;;;;;17.57;83.25;100530.00;10368039;28;20048;-73
2022/10/29 18:24:50;;;;;;;24.55;14.75;;;;;;;17.51;83.66;100522.59;10370089;28;20049;-74
2022/10/29 18:29:51;;;;;;;20.02;13.43;;;;;;;17.46;83.69;100519.53;10369459;28;20862;-73
2022/10/29 18:34:52;;;;;;;20.38;14.95;;;;;;;17.46;83.61;100522.25;10371017;28;20141;-74
2022/10/29 18:39:55;;;;;;;17.05;14.05;;;;;;;17.46;83.36;100506.09;10370576;28;20084;-72
2022/10/29 18:44:56;;;;;;;17.58;13.65;;;;;;;17.40;83.42;100514.78;10371376;28;20513;-74
2022/10/29 18:49:58;;;;;;;17.40;13.50;;;;;;;17.33;83.69;100514.59;10366848;28;20060;-74
2022/10/29 18:54:59;;;;;;;21.73;13.60;;;;;;;17.35;83.50;100515.28;10371263;28;20054;-74
2022/10/29 19:00:00;;;;;;;18.38;14.35;;;;;;;17.29;83.77;100511.41;10373166;28;20052;-73
2022/10/29 19:05:02;;;;;;;19.05;16.25;;;;;;;17.25;83.80;100514.53;10379827;28;20049;-74
2022/10/29 19:10:03;;;;;;;20.23;15.27;;;;;;;17.18;83.96;100508.16;10371897;28;20045;-74
2022/10/29 19:15:05;;;;;;;19.02;14.25;;;;;;;17.13;84.10;100516.69;10372157;28;20049;-73
2022/10/29 19:20:07;;;;;;;18.02;14.18;;;;;;;17.16;84.45;100520.88;10376636;28;20220;-71
2022/10/29 19:25:08;;;;;;;20.05;14.93;;;;;;;17.07;84.24;100503.88;10374343;28;20061;-72
2022/10/29 19:30:10;;;;;;;18.33;14.18;;;;;;;17.09;84.17;100509.94;10373484;28;20053;-73
2022/10/29 19:35:11;;;;;;;19.70;13.57;;;;;;;17.09;84.11;100509.94;10378421;28;20535;-72
2022/10/29 19:40:12;;;;;;;16.95;13.68;;;;;;;17.08;84.21;100509.09;10381903;28;20712;-73
2022/10/29 19:45:14;;;;;;;16.35;13.07;;;;;;;17.07;84.16;100501.16;10389831;28;20045;-72
2022/10/29 19:50:15;;;;;;;17.02;14.18;;;;;;;17.02;84.27;100504.34;10402668;28;20049;-73
2022/10/29 19:55:17;;;;;;;17.45;15.10;;;;;;;16.98;84.49;100510.19;10402567;28;20057;-73
2022/10/29 20:00:18;;;;;;;21.27;14.43;;;;;;;16.91;84.62;100505.47;10407955;28;20048;-73
2022/10/29 20:05:20;;;;;;;15.98;13.40;;;;;;;16.89;84.97;100504.78;10395845;28;20054;-74
2022/10/29 20:10:22;;;;;;;18.92;13.38;;;;;;;16.87;84.46;100506.78;10398744;28;20049;-72
2022/10/29 20:15:24;;;;;;;19.75;14.13;;;;;;;16.86;84.67;100510.44;10397146;28;20139;-72
2022/10/29 20:20:25;;;;;;;17.27;13.68;;;;;;;16.81;85.05;100517.31;10396752;28;20063;-72
2022/10/29 20:25:27;;;;;;;19.35;14.00;;;;;;;16.76;85.04;100509.72;10397258;28;20057;-71
2022/10/29 20:30:29;;;;;;;19.13;14.63;;;;;;;16.75;85.26;100508.00;10398395;28;20045;-71
2022/10/29 20:35:30;;;;;;;17.85;13.00;;;;;;;16.74;85.16;100511.72;10397953;28;20055;-74
2022/10/29 20:40:31;;;;;;;16.67;12.82;;;;;;;16.69;85.05;100508.66;10404644;28;20280;-72
2022/10/29 20:45:33;;;;;;;18.65;13.68;;;;;;;16.67;85.46;100505.28;10400958;28;20049;-72
2022/10/29 20:50:34;;;;;;;21.15;14.38;;;;;;;16.66;85.62;100508.97;10392382;28;20089;-72
2022/10/29 20:55:35;;;;;;;19.48;13.50;;;;;;;16.65;85.78;100502.75;10396699;28;20064;-72
2022/10/29 21:00:37;;;;;;;20.05;13.55;;;;;;;16.68;85.78;100506.94;10431585;28;20056;-71
2022/10/29 21:05:39;;;;;;;19.55;12.80;;;;;;;16.63;86.34;100515.47;10436938;28;20075;-74
2022/10/29 21:10:40;;;;;;;15.85;11.93;;;;;;;16.66;86.53;100522.41;10418388;28;20846;-71
2022/10/29 21:15:41;;;;;;;14.23;11.45;;;;;;;16.64;87.29;100510.97;10418535;28;20049;-71
2022/10/29 21:20:43;;;;;;;16.10;12.25;;;;;;;16.61;87.61;100499.53;10425681;28;20063;-73
2022/10/29 21:25:51;;;;;;;20.10;12.60;;;;;;;16.62;87.96;100513.81;10418736;28;20254;-74
2022/10/29 21:30:52;;;;;;;17.25;13.75;;;;;;;16.57;88.39;100522.34;10414005;28;20056;-73
2022/10/29 21:35:55;;;;;;;18.23;13.30;;;;;;;16.56;88.86;100507.22;10432060;28;20060;-73
2022/10/29 21:40:56;;;;;;;16.05;11.38;;;;;;;16.54;89.45;100506.53;10438541;28;20048;-72
2022/10/29 21:45:58;;;;;;;13.13;11.15;;;;;;;16.47;90.07;100505.47;10413995;28;20083;-75
2022/10/29 21:51:09;;;;;;;13.40;10.98;;;;;;;16.51;90.37;100501.44;10431834;28;20155;-73
2022/10/29 21:56:12;;;;;;;15.90;12.43;;;;;;;16.51;90.54;100496.06;10431822;28;20060;-75
2022/10/29 22:01:15;;;;;;;19.02;13.00;;;;;;;16.44;91.61;100505.78;10432174;28;20041;-75
2022/10/29 22:06:19;;;;;;;17.13;11.85;;;;;;;16.39;92.19;100498.19;10430006;28;20073;-74
2022/10/29 22:11:21;;;;;;;15.10;12.07;;;;;;;16.41;92.53;100495.34;10419858;28;20333;-74
2022/10/29 22:16:22;;;;;;;16.67;11.27;;;;;;;16.39;92.57;100500.03;10434792;28;20059;-75
2022/10/29 22:21:25;;;;;;;16.70;11.60;;;;;;;16.42;92.69;100502.41;10438560;28;20047;-76
2022/10/29 22:26:28;;;;;;;15.40;10.57;;;;;;;16.40;92.81;100499.88;10428237;28;20105;-75
2022/10/29 22:31:29;;;;;;;17.33;11.13;;;;;;;16.40;92.90;100490.97;10410308;28;20622;-75
2022/10/29 22:36:30;;;;;;;15.77;11.32;;;;;;;16.34;93.37;100489.75;10409382;28;20049;-74
2022/10/29 22:41:32;;;;;;;14.98;11.27;;;;;;;16.35;93.91;100490.56;10394402;28;20060;-75
2022/10/29 22:46:33;;;;;;;15.65;12.25;;;;;;;16.31;93.65;100483.84;10401211;28;20415;-72
2022/10/29 22:51:35;;;;;;;13.45;10.35;;;;;;;16.30;94.00;100482.16;10392558;28;20049;-75
2022/10/29 22:56:37;;;;;;;16.08;12.07;;;;;;;16.28;94.30;100485.00;10389538;28;20506;-73
2022/10/29 23:01:39;;;;;;;16.80;12.35;;;;;;;16.27;94.57;100485.97;10389617;28;20050;-74
2022/10/29 23:06:46;;;;;;;16.30;12.15;;;;;;;16.28;94.50;100478.78;10430905;28;20110;-75